sensor_id;sensor_type;location;lat;lon;timestamp;temperature;humidity
49242;DHT22;35079;52.704;13.814;2023-09-08T00:01:12;17.90;99.90
49242;DHT22;35079;52.704;13.814;2023-09-08T00:03:50;17.80;99.90
49242;DHT22;35079;52.704;13.814;2023-09-08T00:09:30;17.60;99.90
49242;DHT22;35079;52.704;13.814;2023-09-08T00:12:20;17.70;99.90
49242;DHT22;35079;52.704;13.814;2023-09-08T00:15:50;17.70;99.90
49242;DHT22;35079;52.704;13.814;2023-09-08T00:17:57;17.60;99.90
49242;DHT22;35079;52.704;13.814;2023-09-08T00:20:22;17.70;99.90
49242;DHT22;35079;52.704;13.814;2023-09-08T00:22:48;17.70;99.90
49242;DHT22;35079;52.704;13.814;2023-09-08T00:25:14;17.70;99.90
49242;DHT22;35079;52.704;13.814;2023-09-08T00:28:24;17.60;99.90
49242;DHT22;35079;52.704;13.814;2023-09-08T00:30:50;17.70;99.90
49242;DHT22;35079;52.704;13.814;2023-09-08T00:47:45;17.40;99.90
49242;DHT22;35079;52.704;13.814;2023-09-08T00:57:25;17.20;99.90
49242;DHT22;35079;52.704;13.814;2023-09-08T01:00:41;17.20;99.90
49242;DHT22;35079;52.704;13.814;2023-09-08T01:06:35;17.10;99.90
49242;DHT22;35079;52.704;13.814;2023-09-08T01:13:29;17.20;99.90
49242;DHT22;35079;52.704;13.814;2023-09-08T01:33:09;17.00;99.90
49242;DHT22;35079;52.704;13.814;2023-09-08T01:36:17;17.00;99.90
49242;DHT22;35079;52.704;13.814;2023-09-08T01:49:18;16.80;99.90
49242;DHT22;35079;52.704;13.814;2023-09-08T01:55:10;16.80;99.90
49242;DHT22;35079;52.704;13.814;2023-09-08T02:01:10;16.60;99.90
49242;DHT22;35079;52.704;13.814;2023-09-08T02:03:51;16.80;99.90
49242;DHT22;35079;52.704;13.814;2023-09-08T02:09:33;16.60;99.90
49242;DHT22;35079;52.704;13.814;2023-09-08T02:12:26;16.70;99.90
49242;DHT22;35079;52.704;13.814;2023-09-08T02:15:14;16.50;99.90
49242;DHT22;35079;52.704;13.814;2023-09-08T02:18:08;16.50;99.90
49242;DHT22;35079;52.704;13.814;2023-09-08T02:20:34;16.50;99.90
49242;DHT22;35079;52.704;13.814;2023-09-08T02:23:22;16.50;99.90
49242;DHT22;35079;52.704;13.814;2023-09-08T02:25:58;16.50;99.90
49242;DHT22;35079;52.704;13.814;2023-09-08T02:28:54;16.40;99.90
49242;DHT22;35079;52.704;13.814;2023-09-08T02:31:20;16.40;99.90
49242;DHT22;35079;52.704;13.814;2023-09-08T02:33:52;16.30;99.90
49242;DHT22;35079;52.704;13.814;2023-09-08T02:36:18;16.30;99.90
49242;DHT22;35079;52.704;13.814;2023-09-08T02:38:56;16.30;99.90
49242;DHT22;35079;52.704;13.814;2023-09-08T02:41:43;16.30;99.90
49242;DHT22;35079;52.704;13.814;2023-09-08T02:44:32;16.30;99.90
49242;DHT22;35079;52.704;13.814;2023-09-08T02:46:58;16.30;99.90
49242;DHT22;35079;52.704;13.814;2023-09-08T02:49:30;16.30;99.90
49242;DHT22;35079;52.704;13.814;2023-09-08T02:51:59;16.30;99.90
49242;DHT22;35079;52.704;13.814;2023-09-08T02:54:25;16.30;99.90
49242;DHT22;35079;52.704;13.814;2023-09-08T02:56:50;16.30;99.90
49242;DHT22;35079;52.704;13.814;2023-09-08T02:59:16;16.30;99.90
49242;DHT22;35079;52.704;13.814;2023-09-08T03:01:42;16.20;99.90
49242;DHT22;35079;52.704;13.814;2023-09-08T03:04:08;16.30;99.90
49242;DHT22;35079;52.704;13.814;2023-09-08T03:06:35;16.30;99.90
49242;DHT22;35079;52.704;13.814;2023-09-08T03:09:00;16.30;99.90
49242;DHT22;35079;52.704;13.814;2023-09-08T03:11:29;16.20;99.90
49242;DHT22;35079;52.704;13.814;2023-09-08T03:13:55;16.30;99.90
49242;DHT22;35079;52.704;13.814;2023-09-08T03:16:20;16.20;99.90
49242;DHT22;35079;52.704;13.814;2023-09-08T03:18:46;16.20;99.90
49242;DHT22;35079;52.704;13.814;2023-09-08T03:21:14;16.20;99.90
49242;DHT22;35079;52.704;13.814;2023-09-08T03:23:41;16.20;99.90
49242;DHT22;35079;52.704;13.814;2023-09-08T03:26:07;16.20;99.90
49242;DHT22;35079;52.704;13.814;2023-09-08T03:28:34;16.00;99.90
49242;DHT22;35079;52.704;13.814;2023-09-08T03:31:04;15.90;99.90
49242;DHT22;35079;52.704;13.814;2023-09-08T03:33:29;16.00;99.90
49242;DHT22;35079;52.704;13.814;2023-09-08T03:35:55;16.10;99.90
49242;DHT22;35079;52.704;13.814;2023-09-08T03:38:21;16.00;99.90
49242;DHT22;35079;52.704;13.814;2023-09-08T03:40:47;16.00;99.90
49242;DHT22;35079;52.704;13.814;2023-09-08T03:43:13;16.00;99.90
49242;DHT22;35079;52.704;13.814;2023-09-08T03:45:38;16.00;99.90
49242;DHT22;35079;52.704;13.814;2023-09-08T03:48:04;16.10;99.90
49242;DHT22;35079;52.704;13.814;2023-09-08T03:50:30;16.00;99.90
49242;DHT22;35079;52.704;13.814;2023-09-08T03:52:56;16.00;99.90
49242;DHT22;35079;52.704;13.814;2023-09-08T03:55:21;16.00;99.90
49242;DHT22;35079;52.704;13.814;2023-09-08T03:57:47;16.00;99.90
49242;DHT22;35079;52.704;13.814;2023-09-08T04:00:13;16.00;99.90
49242;DHT22;35079;52.704;13.814;2023-09-08T04:02:47;16.00;99.90
49242;DHT22;35079;52.704;13.814;2023-09-08T04:05:12;16.10;99.90
49242;DHT22;35079;52.704;13.814;2023-09-08T04:07:38;16.10;99.90
49242;DHT22;35079;52.704;13.814;2023-09-08T04:10:04;16.00;99.90
49242;DHT22;35079;52.704;13.814;2023-09-08T04:12:30;16.00;99.90
49242;DHT22;35079;52.704;13.814;2023-09-08T04:14:55;16.00;99.90
49242;DHT22;35079;52.704;13.814;2023-09-08T04:17:21;16.00;99.90
49242;DHT22;35079;52.704;13.814;2023-09-08T04:19:47;16.00;99.90
49242;DHT22;35079;52.704;13.814;2023-09-08T04:22:12;15.90;99.90
49242;DHT22;35079;52.704;13.814;2023-09-08T04:24:38;15.90;99.90
49242;DHT22;35079;52.704;13.814;2023-09-08T04:27:04;15.90;99.90
49242;DHT22;35079;52.704;13.814;2023-09-08T04:29:29;16.00;99.90
49242;DHT22;35079;52.704;13.814;2023-09-08T04:31:55;15.90;99.90
49242;DHT22;35079;52.704;13.814;2023-09-08T04:34:21;16.00;99.90
49242;DHT22;35079;52.704;13.814;2023-09-08T04:36:46;15.90;99.90
49242;DHT22;35079;52.704;13.814;2023-09-08T04:39:12;15.80;99.90
49242;DHT22;35079;52.704;13.814;2023-09-08T04:41:39;15.70;99.90
49242;DHT22;35079;52.704;13.814;2023-09-08T04:44:05;15.80;99.90
49242;DHT22;35079;52.704;13.814;2023-09-08T04:46:30;15.60;99.90
49242;DHT22;35079;52.704;13.814;2023-09-08T04:48:56;15.70;99.90
49242;DHT22;35079;52.704;13.814;2023-09-08T04:51:22;15.60;99.90
49242;DHT22;35079;52.704;13.814;2023-09-08T04:53:47;15.70;99.90
49242;DHT22;35079;52.704;13.814;2023-09-08T04:56:13;15.70;99.90
49242;DHT22;35079;52.704;13.814;2023-09-08T04:58:39;15.70;99.90
49242;DHT22;35079;52.704;13.814;2023-09-08T05:01:04;15.70;99.90
49242;DHT22;35079;52.704;13.814;2023-09-08T05:03:31;15.70;99.90
49242;DHT22;35079;52.704;13.814;2023-09-08T05:05:56;15.70;99.90
49242;DHT22;35079;52.704;13.814;2023-09-08T05:08:22;15.70;99.90
49242;DHT22;35079;52.704;13.814;2023-09-08T05:10:48;15.70;99.90
49242;DHT22;35079;52.704;13.814;2023-09-08T05:13:15;15.90;99.90
49242;DHT22;35079;52.704;13.814;2023-09-08T05:15:40;15.90;99.90
49242;DHT22;35079;52.704;13.814;2023-09-08T05:18:08;16.00;99.90
49242;DHT22;35079;52.704;13.814;2023-09-08T05:20:33;16.10;99.90
49242;DHT22;35079;52.704;13.814;2023-09-08T05:22:59;16.10;99.90
49242;DHT22;35079;52.704;13.814;2023-09-08T05:25:25;16.20;99.90
49242;DHT22;35079;52.704;13.814;2023-09-08T05:27:50;16.30;99.90
49242;DHT22;35079;52.704;13.814;2023-09-08T05:30:19;16.30;99.90
49242;DHT22;35079;52.704;13.814;2023-09-08T05:32:47;16.50;99.90
49242;DHT22;35079;52.704;13.814;2023-09-08T05:35:31;16.50;99.90
49242;DHT22;35079;52.704;13.814;2023-09-08T05:42:08;16.90;99.90
49242;DHT22;35079;52.704;13.814;2023-09-08T05:45:11;17.00;99.90
49242;DHT22;35079;52.704;13.814;2023-09-08T05:51:31;17.30;99.90
49242;DHT22;35079;52.704;13.814;2023-09-08T05:58:23;17.70;99.90
49242;DHT22;35079;52.704;13.814;2023-09-08T06:00:53;17.80;99.90
49242;DHT22;35079;52.704;13.814;2023-09-08T06:03:19;17.80;99.90
49242;DHT22;35079;52.704;13.814;2023-09-08T06:05:45;17.90;99.90
49242;DHT22;35079;52.704;13.814;2023-09-08T06:08:10;18.20;99.90
49242;DHT22;35079;52.704;13.814;2023-09-08T06:10:37;18.20;99.90
49242;DHT22;35079;52.704;13.814;2023-09-08T06:13:02;18.40;99.90
49242;DHT22;35079;52.704;13.814;2023-09-08T06:15:28;18.40;99.90
49242;DHT22;35079;52.704;13.814;2023-09-08T06:17:54;18.60;99.90
49242;DHT22;35079;52.704;13.814;2023-09-08T06:20:19;18.70;99.90
49242;DHT22;35079;52.704;13.814;2023-09-08T06:22:45;18.80;99.90
49242;DHT22;35079;52.704;13.814;2023-09-08T06:25:11;18.80;99.90
49242;DHT22;35079;52.704;13.814;2023-09-08T06:27:36;19.00;99.90
49242;DHT22;35079;52.704;13.814;2023-09-08T06:30:02;19.10;99.90
49242;DHT22;35079;52.704;13.814;2023-09-08T06:32:28;19.40;99.90
49242;DHT22;35079;52.704;13.814;2023-09-08T06:34:54;19.40;99.90
49242;DHT22;35079;52.704;13.814;2023-09-08T06:37:19;19.70;99.90
49242;DHT22;35079;52.704;13.814;2023-09-08T06:39:45;19.80;99.90
49242;DHT22;35079;52.704;13.814;2023-09-08T06:42:11;19.70;99.90
49242;DHT22;35079;52.704;13.814;2023-09-08T06:44:36;19.90;99.90
49242;DHT22;35079;52.704;13.814;2023-09-08T06:47:02;20.10;99.90
49242;DHT22;35079;52.704;13.814;2023-09-08T06:49:28;20.10;99.90
49242;DHT22;35079;52.704;13.814;2023-09-08T06:51:54;20.30;99.90
49242;DHT22;35079;52.704;13.814;2023-09-08T06:54:20;20.40;99.90
49242;DHT22;35079;52.704;13.814;2023-09-08T06:56:45;20.50;99.90
49242;DHT22;35079;52.704;13.814;2023-09-08T06:59:11;20.50;99.90
49242;DHT22;35079;52.704;13.814;2023-09-08T07:01:36;20.60;99.90
49242;DHT22;35079;52.704;13.814;2023-09-08T07:04:02;20.80;99.90
49242;DHT22;35079;52.704;13.814;2023-09-08T07:06:28;20.90;99.90
49242;DHT22;35079;52.704;13.814;2023-09-08T07:08:53;21.20;99.90
49242;DHT22;35079;52.704;13.814;2023-09-08T07:11:19;21.10;99.90
49242;DHT22;35079;52.704;13.814;2023-09-08T07:13:44;21.20;99.90
49242;DHT22;35079;52.704;13.814;2023-09-08T07:16:10;21.50;99.90
49242;DHT22;35079;52.704;13.814;2023-09-08T07:18:35;21.40;99.90
49242;DHT22;35079;52.704;13.814;2023-09-08T07:21:03;21.70;99.90
49242;DHT22;35079;52.704;13.814;2023-09-08T07:23:29;22.00;99.90
49242;DHT22;35079;52.704;13.814;2023-09-08T07:25:54;22.00;99.90
49242;DHT22;35079;52.704;13.814;2023-09-08T07:28:20;22.00;99.90
49242;DHT22;35079;52.704;13.814;2023-09-08T07:30:45;22.30;99.90
49242;DHT22;35079;52.704;13.814;2023-09-08T07:33:11;22.40;99.90
49242;DHT22;35079;52.704;13.814;2023-09-08T07:35:38;22.30;99.90
49242;DHT22;35079;52.704;13.814;2023-09-08T07:38:04;22.50;99.90
49242;DHT22;35079;52.704;13.814;2023-09-08T07:40:31;22.60;99.90
49242;DHT22;35079;52.704;13.814;2023-09-08T07:42:56;22.70;99.90
49242;DHT22;35079;52.704;13.814;2023-09-08T07:45:22;23.00;99.90
49242;DHT22;35079;52.704;13.814;2023-09-08T07:47:48;22.90;99.90
49242;DHT22;35079;52.704;13.814;2023-09-08T07:50:22;23.20;99.90
49242;DHT22;35079;52.704;13.814;2023-09-08T07:52:49;23.20;99.90
49242;DHT22;35079;52.704;13.814;2023-09-08T07:55:15;23.40;99.90
49242;DHT22;35079;52.704;13.814;2023-09-08T07:57:45;23.50;99.90
49242;DHT22;35079;52.704;13.814;2023-09-08T08:00:14;23.80;99.90
49242;DHT22;35079;52.704;13.814;2023-09-08T08:02:43;23.70;99.90
49242;DHT22;35079;52.704;13.814;2023-09-08T08:05:11;23.90;99.90
49242;DHT22;35079;52.704;13.814;2023-09-08T08:07:38;24.30;99.90
49242;DHT22;35079;52.704;13.814;2023-09-08T08:10:05;24.70;99.90
49242;DHT22;35079;52.704;13.814;2023-09-08T08:12:31;24.80;99.90
49242;DHT22;35079;52.704;13.814;2023-09-08T08:14:56;24.90;99.90
49242;DHT22;35079;52.704;13.814;2023-09-08T08:17:23;25.00;99.90
49242;DHT22;35079;52.704;13.814;2023-09-08T08:19:49;25.30;99.90
49242;DHT22;35079;52.704;13.814;2023-09-08T08:22:15;25.70;99.40
49242;DHT22;35079;52.704;13.814;2023-09-08T08:24:40;26.00;98.70
49242;DHT22;35079;52.704;13.814;2023-09-08T08:27:07;26.20;97.70
49242;DHT22;35079;52.704;13.814;2023-09-08T08:29:33;25.90;98.60
49242;DHT22;35079;52.704;13.814;2023-09-08T08:31:58;25.90;98.20
49242;DHT22;35079;52.704;13.814;2023-09-08T08:34:25;25.70;98.60
49242;DHT22;35079;52.704;13.814;2023-09-08T08:36:51;25.90;98.50
49242;DHT22;35079;52.704;13.814;2023-09-08T08:39:16;25.70;98.70
49242;DHT22;35079;52.704;13.814;2023-09-08T08:41:45;25.80;98.70
49242;DHT22;35079;52.704;13.814;2023-09-08T08:44:11;25.80;99.90
49242;DHT22;35079;52.704;13.814;2023-09-08T08:46:40;25.80;98.60
49242;DHT22;35079;52.704;13.814;2023-09-08T08:49:06;26.00;98.00
49242;DHT22;35079;52.704;13.814;2023-09-08T08:51:34;26.20;98.10
49242;DHT22;35079;52.704;13.814;2023-09-08T08:54:01;26.40;98.00
49242;DHT22;35079;52.704;13.814;2023-09-08T08:56:35;26.60;97.30
49242;DHT22;35079;52.704;13.814;2023-09-08T08:59:01;26.30;97.60
49242;DHT22;35079;52.704;13.814;2023-09-08T09:01:28;26.20;97.90
49242;DHT22;35079;52.704;13.814;2023-09-08T09:03:55;26.40;97.00
49242;DHT22;35079;52.704;13.814;2023-09-08T09:06:22;26.70;96.70
49242;DHT22;35079;52.704;13.814;2023-09-08T09:08:48;26.80;96.30
49242;DHT22;35079;52.704;13.814;2023-09-08T09:11:14;27.10;95.00
49242;DHT22;35079;52.704;13.814;2023-09-08T09:13:43;27.50;95.90
49242;DHT22;35079;52.704;13.814;2023-09-08T09:19:20;28.30;94.40
49242;DHT22;35079;52.704;13.814;2023-09-08T09:21:52;29.00;93.10
49242;DHT22;35079;52.704;13.814;2023-09-08T09:24:30;28.50;93.10
49242;DHT22;35079;52.704;13.814;2023-09-08T09:26:58;29.00;92.90
49242;DHT22;35079;52.704;13.814;2023-09-08T09:29:24;29.00;93.20
49242;DHT22;35079;52.704;13.814;2023-09-08T09:31:52;29.70;92.20
49242;DHT22;35079;52.704;13.814;2023-09-08T09:34:19;30.10;92.50
49242;DHT22;35079;52.704;13.814;2023-09-08T09:36:46;30.50;91.20
49242;DHT22;35079;52.704;13.814;2023-09-08T09:39:17;30.60;90.10
49242;DHT22;35079;52.704;13.814;2023-09-08T09:41:44;31.90;88.60
49242;DHT22;35079;52.704;13.814;2023-09-08T09:44:10;32.10;86.50
49242;DHT22;35079;52.704;13.814;2023-09-08T09:46:36;32.00;85.10
49242;DHT22;35079;52.704;13.814;2023-09-08T09:49:02;32.90;84.80
49242;DHT22;35079;52.704;13.814;2023-09-08T09:51:29;32.70;82.70
49242;DHT22;35079;52.704;13.814;2023-09-08T09:53:55;32.50;80.70
49242;DHT22;35079;52.704;13.814;2023-09-08T09:56:22;32.00;79.90
49242;DHT22;35079;52.704;13.814;2023-09-08T09:58:49;32.30;79.90
49242;DHT22;35079;52.704;13.814;2023-09-08T10:01:15;32.70;78.60
49242;DHT22;35079;52.704;13.814;2023-09-08T10:03:42;31.60;79.00
49242;DHT22;35079;52.704;13.814;2023-09-08T10:06:09;31.50;79.20
49242;DHT22;35079;52.704;13.814;2023-09-08T10:08:35;30.90;81.70
49242;DHT22;35079;52.704;13.814;2023-09-08T10:11:07;30.50;81.50
49242;DHT22;35079;52.704;13.814;2023-09-08T10:13:39;29.90;83.10
49242;DHT22;35079;52.704;13.814;2023-09-08T10:16:08;30.00;82.80
49242;DHT22;35079;52.704;13.814;2023-09-08T10:18:35;31.00;84.40
49242;DHT22;35079;52.704;13.814;2023-09-08T10:21:04;31.30;81.90
49242;DHT22;35079;52.704;13.814;2023-09-08T10:23:49;32.10;79.70
49242;DHT22;35079;52.704;13.814;2023-09-08T10:26:20;32.90;77.50
49242;DHT22;35079;52.704;13.814;2023-09-08T10:28:47;31.60;77.00
49242;DHT22;35079;52.704;13.814;2023-09-08T10:31:14;31.30;77.20
49242;DHT22;35079;52.704;13.814;2023-09-08T10:33:41;30.00;78.40
49242;DHT22;35079;52.704;13.814;2023-09-08T10:36:08;29.00;83.20
49242;DHT22;35079;52.704;13.814;2023-09-08T10:38:35;28.40;82.20
49242;DHT22;35079;52.704;13.814;2023-09-08T10:41:30;28.90;85.40
49242;DHT22;35079;52.704;13.814;2023-09-08T10:44:01;29.90;81.50
49242;DHT22;35079;52.704;13.814;2023-09-08T10:46:29;30.00;78.60
49242;DHT22;35079;52.704;13.814;2023-09-08T10:49:02;30.00;83.60
49242;DHT22;35079;52.704;13.814;2023-09-08T10:51:29;30.30;80.30
49242;DHT22;35079;52.704;13.814;2023-09-08T10:53:54;29.80;81.00
49242;DHT22;35079;52.704;13.814;2023-09-08T10:56:20;29.30;83.20
49242;DHT22;35079;52.704;13.814;2023-09-08T10:58:51;29.10;82.30
49242;DHT22;35079;52.704;13.814;2023-09-08T11:01:19;28.70;86.00
49242;DHT22;35079;52.704;13.814;2023-09-08T11:03:48;28.40;81.20
49242;DHT22;35079;52.704;13.814;2023-09-08T11:06:34;28.30;83.50
49242;DHT22;35079;52.704;13.814;2023-09-08T11:12:05;27.80;84.50
49242;DHT22;35079;52.704;13.814;2023-09-08T11:14:33;27.70;82.70
49242;DHT22;35079;52.704;13.814;2023-09-08T11:17:02;27.30;84.30
49242;DHT22;35079;52.704;13.814;2023-09-08T11:19:44;27.30;84.30
49242;DHT22;35079;52.704;13.814;2023-09-08T11:22:10;27.60;82.60
49242;DHT22;35079;52.704;13.814;2023-09-08T11:24:36;27.70;82.60
49242;DHT22;35079;52.704;13.814;2023-09-08T11:27:01;27.50;85.20
49242;DHT22;35079;52.704;13.814;2023-09-08T11:29:27;27.90;78.10
49242;DHT22;35079;52.704;13.814;2023-09-08T11:32:23;28.10;77.00
49242;DHT22;35079;52.704;13.814;2023-09-08T11:34:50;28.60;78.80
49242;DHT22;35079;52.704;13.814;2023-09-08T11:37:17;29.70;76.70
49242;DHT22;35079;52.704;13.814;2023-09-08T11:39:45;30.20;74.10
49242;DHT22;35079;52.704;13.814;2023-09-08T11:42:15;31.10;73.00
49242;DHT22;35079;52.704;13.814;2023-09-08T11:44:41;32.50;71.60
49242;DHT22;35079;52.704;13.814;2023-09-08T11:47:08;33.00;70.70
49242;DHT22;35079;52.704;13.814;2023-09-08T11:49:39;32.90;69.20
49242;DHT22;35079;52.704;13.814;2023-09-08T11:52:05;32.60;69.40
49242;DHT22;35079;52.704;13.814;2023-09-08T11:54:32;33.50;69.20
49242;DHT22;35079;52.704;13.814;2023-09-08T11:57:04;34.10;65.30
49242;DHT22;35079;52.704;13.814;2023-09-08T11:59:33;33.30;67.00
49242;DHT22;35079;52.704;13.814;2023-09-08T12:01:59;34.20;66.10
49242;DHT22;35079;52.704;13.814;2023-09-08T12:04:26;33.40;66.60
49242;DHT22;35079;52.704;13.814;2023-09-08T12:06:53;33.80;66.30
49242;DHT22;35079;52.704;13.814;2023-09-08T12:09:21;34.10;63.30
49242;DHT22;35079;52.704;13.814;2023-09-08T12:11:47;33.70;61.10
49242;DHT22;35079;52.704;13.814;2023-09-08T12:14:15;33.10;62.30
49242;DHT22;35079;52.704;13.814;2023-09-08T12:16:41;33.00;64.80
49242;DHT22;35079;52.704;13.814;2023-09-08T12:19:08;33.30;65.70
49242;DHT22;35079;52.704;13.814;2023-09-08T12:21:59;33.50;63.10
49242;DHT22;35079;52.704;13.814;2023-09-08T12:27:19;32.10;64.70
49242;DHT22;35079;52.704;13.814;2023-09-08T12:29:58;31.70;62.50
49242;DHT22;35079;52.704;13.814;2023-09-08T12:32:26;30.70;64.90
49242;DHT22;35079;52.704;13.814;2023-09-08T12:34:54;29.80;67.10
49242;DHT22;35079;52.704;13.814;2023-09-08T12:37:22;29.70;69.60
49242;DHT22;35079;52.704;13.814;2023-09-08T12:39:48;29.80;67.50
49242;DHT22;35079;52.704;13.814;2023-09-08T12:42:14;29.40;67.60
49242;DHT22;35079;52.704;13.814;2023-09-08T12:54:18;29.00;66.50
49242;DHT22;35079;52.704;13.814;2023-09-08T12:56:44;28.60;66.90
49242;DHT22;35079;52.704;13.814;2023-09-08T12:59:13;28.60;66.80
49242;DHT22;35079;52.704;13.814;2023-09-08T13:01:39;28.50;65.60
49242;DHT22;35079;52.704;13.814;2023-09-08T13:04:05;28.50;66.50
49242;DHT22;35079;52.704;13.814;2023-09-08T13:06:30;28.50;65.70
49242;DHT22;35079;52.704;13.814;2023-09-08T13:08:58;28.30;65.70
49242;DHT22;35079;52.704;13.814;2023-09-08T13:11:24;28.20;64.30
49242;DHT22;35079;52.704;13.814;2023-09-08T13:13:50;28.20;68.10
49242;DHT22;35079;52.704;13.814;2023-09-08T13:16:15;28.20;67.20
49242;DHT22;35079;52.704;13.814;2023-09-08T13:18:41;28.30;70.90
49242;DHT22;35079;52.704;13.814;2023-09-08T13:21:07;28.00;71.30
49242;DHT22;35079;52.704;13.814;2023-09-08T13:23:33;28.00;72.60
49242;DHT22;35079;52.704;13.814;2023-09-08T13:25:58;28.00;73.70
49242;DHT22;35079;52.704;13.814;2023-09-08T13:28:24;28.20;72.60
49242;DHT22;35079;52.704;13.814;2023-09-08T13:30:49;28.10;72.40
49242;DHT22;35079;52.704;13.814;2023-09-08T13:33:15;28.10;72.20
49242;DHT22;35079;52.704;13.814;2023-09-08T13:35:41;28.10;72.30
49242;DHT22;35079;52.704;13.814;2023-09-08T13:38:42;28.80;70.90
49242;DHT22;35079;52.704;13.814;2023-09-08T13:44:32;28.50;71.10
49242;DHT22;35079;52.704;13.814;2023-09-08T13:49:58;28.60;66.80
49242;DHT22;35079;52.704;13.814;2023-09-08T13:52:24;28.20;67.80
49242;DHT22;35079;52.704;13.814;2023-09-08T13:54:50;28.40;66.70
49242;DHT22;35079;52.704;13.814;2023-09-08T13:57:16;28.20;67.30
49242;DHT22;35079;52.704;13.814;2023-09-08T13:59:42;28.30;66.70
49242;DHT22;35079;52.704;13.814;2023-09-08T14:02:07;28.50;66.10
49242;DHT22;35079;52.704;13.814;2023-09-08T14:04:33;28.20;67.40
49242;DHT22;35079;52.704;13.814;2023-09-08T14:06:59;28.00;69.60
49242;DHT22;35079;52.704;13.814;2023-09-08T14:09:24;28.00;69.20
49242;DHT22;35079;52.704;13.814;2023-09-08T14:11:51;27.60;70.10
49242;DHT22;35079;52.704;13.814;2023-09-08T14:14:17;27.60;72.60
49242;DHT22;35079;52.704;13.814;2023-09-08T14:16:43;27.40;73.20
49242;DHT22;35079;52.704;13.814;2023-09-08T14:19:08;27.50;73.10
49242;DHT22;35079;52.704;13.814;2023-09-08T14:21:34;27.50;72.30
49242;DHT22;35079;52.704;13.814;2023-09-08T14:24:01;27.20;73.60
49242;DHT22;35079;52.704;13.814;2023-09-08T14:26:27;27.20;74.80
49242;DHT22;35079;52.704;13.814;2023-09-08T14:28:52;27.30;73.60
49242;DHT22;35079;52.704;13.814;2023-09-08T14:31:18;26.90;72.20
49242;DHT22;35079;52.704;13.814;2023-09-08T14:33:45;27.00;74.60
49242;DHT22;35079;52.704;13.814;2023-09-08T14:36:10;27.10;73.80
49242;DHT22;35079;52.704;13.814;2023-09-08T14:38:36;27.20;73.40
49242;DHT22;35079;52.704;13.814;2023-09-08T14:41:02;26.90;72.30
49242;DHT22;35079;52.704;13.814;2023-09-08T14:43:28;27.30;71.40
49242;DHT22;35079;52.704;13.814;2023-09-08T14:45:54;27.20;71.70
49242;DHT22;35079;52.704;13.814;2023-09-08T14:48:22;27.10;72.50
49242;DHT22;35079;52.704;13.814;2023-09-08T14:50:48;27.30;71.80
49242;DHT22;35079;52.704;13.814;2023-09-08T14:53:14;27.00;72.70
49242;DHT22;35079;52.704;13.814;2023-09-08T14:55:39;26.90;73.70
49242;DHT22;35079;52.704;13.814;2023-09-08T14:58:05;27.10;73.20
49242;DHT22;35079;52.704;13.814;2023-09-08T15:00:31;26.90;74.10
49242;DHT22;35079;52.704;13.814;2023-09-08T15:02:57;26.60;75.00
49242;DHT22;35079;52.704;13.814;2023-09-08T15:05:24;26.70;75.30
49242;DHT22;35079;52.704;13.814;2023-09-08T15:07:49;26.70;73.90
49242;DHT22;35079;52.704;13.814;2023-09-08T15:10:15;26.70;75.00
49242;DHT22;35079;52.704;13.814;2023-09-08T15:12:41;26.80;72.90
49242;DHT22;35079;52.704;13.814;2023-09-08T15:15:07;26.70;74.60
49242;DHT22;35079;52.704;13.814;2023-09-08T15:17:33;26.70;75.00
49242;DHT22;35079;52.704;13.814;2023-09-08T15:19:59;26.60;75.90
49242;DHT22;35079;52.704;13.814;2023-09-08T15:22:25;26.50;75.20
49242;DHT22;35079;52.704;13.814;2023-09-08T15:24:51;26.60;75.20
49242;DHT22;35079;52.704;13.814;2023-09-08T15:27:17;26.50;74.20
49242;DHT22;35079;52.704;13.814;2023-09-08T15:29:42;26.40;73.70
49242;DHT22;35079;52.704;13.814;2023-09-08T15:32:08;26.60;74.40
49242;DHT22;35079;52.704;13.814;2023-09-08T15:34:34;26.60;73.80
49242;DHT22;35079;52.704;13.814;2023-09-08T15:37:00;26.60;73.70
49242;DHT22;35079;52.704;13.814;2023-09-08T15:39:25;26.40;73.30
49242;DHT22;35079;52.704;13.814;2023-09-08T15:41:51;26.50;73.30
49242;DHT22;35079;52.704;13.814;2023-09-08T15:44:16;26.40;74.80
49242;DHT22;35079;52.704;13.814;2023-09-08T15:46:42;26.40;74.30
49242;DHT22;35079;52.704;13.814;2023-09-08T15:49:08;26.30;73.70
49242;DHT22;35079;52.704;13.814;2023-09-08T15:51:34;26.40;75.50
49242;DHT22;35079;52.704;13.814;2023-09-08T15:53:59;26.10;74.00
49242;DHT22;35079;52.704;13.814;2023-09-08T15:56:25;26.00;74.20
49242;DHT22;35079;52.704;13.814;2023-09-08T15:58:50;26.00;75.10
49242;DHT22;35079;52.704;13.814;2023-09-08T16:01:16;26.00;74.80
49242;DHT22;35079;52.704;13.814;2023-09-08T16:03:41;26.00;74.60
49242;DHT22;35079;52.704;13.814;2023-09-08T16:06:07;25.80;76.70
49242;DHT22;35079;52.704;13.814;2023-09-08T16:08:37;25.80;77.30
49242;DHT22;35079;52.704;13.814;2023-09-08T16:11:03;25.80;75.40
49242;DHT22;35079;52.704;13.814;2023-09-08T16:13:32;25.80;77.00
49242;DHT22;35079;52.704;13.814;2023-09-08T16:15:57;25.90;75.90
49242;DHT22;35079;52.704;13.814;2023-09-08T16:18:23;25.80;76.60
49242;DHT22;35079;52.704;13.814;2023-09-08T16:20:50;25.60;76.00
49242;DHT22;35079;52.704;13.814;2023-09-08T16:23:15;25.70;77.20
49242;DHT22;35079;52.704;13.814;2023-09-08T16:25:41;25.70;77.20
49242;DHT22;35079;52.704;13.814;2023-09-08T16:28:06;25.50;77.10
49242;DHT22;35079;52.704;13.814;2023-09-08T16:30:32;25.60;78.60
49242;DHT22;35079;52.704;13.814;2023-09-08T16:32:58;25.30;80.00
49242;DHT22;35079;52.704;13.814;2023-09-08T16:35:23;25.20;80.20
49242;DHT22;35079;52.704;13.814;2023-09-08T16:37:50;25.10;79.00
49242;DHT22;35079;52.704;13.814;2023-09-08T16:40:15;25.10;80.90
49242;DHT22;35079;52.704;13.814;2023-09-08T16:42:41;24.90;81.30
49242;DHT22;35079;52.704;13.814;2023-09-08T16:45:07;24.80;84.20
49242;DHT22;35079;52.704;13.814;2023-09-08T16:47:34;24.80;81.60
49242;DHT22;35079;52.704;13.814;2023-09-08T16:49:59;24.70;81.90
49242;DHT22;35079;52.704;13.814;2023-09-08T16:52:25;24.60;84.00
49242;DHT22;35079;52.704;13.814;2023-09-08T16:54:50;24.50;84.40
49242;DHT22;35079;52.704;13.814;2023-09-08T16:57:16;24.50;86.80
49242;DHT22;35079;52.704;13.814;2023-09-08T16:59:42;24.40;87.10
49242;DHT22;35079;52.704;13.814;2023-09-08T17:02:07;24.30;87.40
49242;DHT22;35079;52.704;13.814;2023-09-08T17:04:33;24.10;87.10
49242;DHT22;35079;52.704;13.814;2023-09-08T17:06:59;24.10;87.80
49242;DHT22;35079;52.704;13.814;2023-09-08T17:09:24;24.00;88.80